Time;durP1;ratioP1;P1;durP2;ratioP2;P2;SDS_P1;SDS_P2;PMS_P1;PMS_P2;Temp;Humidity;BMP_temperature;BMP_pressure;BME280_temperature;BME280_humidity;BME280_pressure;Samples;Min_cycle;Max_cycle;Signal;HPM_P1;HPM_P2
2022/11/03 00:06:04;;;;;;;;;4.00;3.75;;;;;7.43;82.72;99203.38;4920768;28;102399;-73
2022/11/03 00:08:36;;;;;;;;;6.50;4.50;;;;;7.33;81.98;99191.91;4920314;28;102292;-73
2022/11/03 00:11:12;;;;;;;;;9.50;7.75;;;;;7.35;80.98;99200.66;4914756;28;106145;-73
2022/11/03 00:13:42;;;;;;;;;9.00;9.00;;;;;7.30;80.81;99197.63;4920407;28;105535;-73
2022/11/03 00:16:11;;;;;;;;;9.50;8.50;;;;;7.21;80.47;99190.53;4913596;28;101982;-73
2022/11/03 00:18:38;;;;;;;;;9.00;8.50;;;;;7.09;80.21;99198.94;4919999;28;102201;-73
2022/11/03 00:21:11;;;;;;;;;3.00;2.25;;;;;6.99;80.81;99198.22;4917075;28;102279;-73
2022/11/03 00:23:40;;;;;;;;;4.50;3.25;;;;;6.88;81.97;99193.16;4918675;28;103955;-73
2022/11/03 00:26:21;;;;;;;;;15.75;13.00;;;;;6.71;83.62;99200.31;4912447;28;102245;-73
2022/11/03 00:28:50;;;;;;;;;16.00;13.50;;;;;6.68;83.62;99208.69;4918667;28;102290;-73
2022/11/03 00:31:21;;;;;;;;;11.00;10.00;;;;;6.66;83.20;99209.88;4920774;28;102167;-73
2022/11/03 00:33:49;;;;;;;;;9.25;9.00;;;;;6.63;81.84;99205.66;4915330;28;104080;-74
2022/11/03 00:36:21;;;;;;;;;9.25;9.00;;;;;6.59;81.32;99201.59;4924389;28;103885;-73
2022/11/03 00:38:49;;;;;;;;;9.25;9.25;;;;;6.54;81.07;99205.78;4919258;28;104468;-73
2022/11/03 00:41:19;;;;;;;;;7.50;5.25;;;;;6.47;82.20;99216.34;4912068;28;102086;-73
2022/11/03 00:43:48;;;;;;;;;9.00;9.00;;;;;6.46;82.57;99211.09;4905316;28;104120;-73
2022/11/03 00:46:15;;;;;;;;;8.00;7.00;;;;;6.45;82.83;99212.09;4921934;28;102083;-73
2022/11/03 00:48:43;;;;;;;;;7.25;7.25;;;;;6.44;83.48;99215.81;4917954;28;102367;-74
2022/11/03 00:51:20;;;;;;;;;7.50;7.25;;;;;6.44;83.71;99213.13;4911510;28;102279;-73
2022/11/03 00:53:51;;;;;;;;;4.25;4.25;;;;;6.47;83.42;99215.50;4919162;28;108708;-74
2022/11/03 00:56:25;;;;;;;;;5.25;5.25;;;;;6.50;85.32;99215.16;4920192;28;102383;-73
2022/11/03 00:58:54;;;;;;;;;25.00;19.75;;;;;6.33;85.85;99224.13;4923310;28;102458;-73
2022/11/03 01:01:23;;;;;;;;;13.50;11.75;;;;;6.26;83.87;99214.00;4918650;28;102267;-73
2022/11/03 01:06:50;;;;;;;;;51.50;40.75;;;;;5.72;86.46;99208.91;4911743;28;102341;-73
2022/11/03 01:09:34;;;;;;;;;54.75;38.50;;;;;5.63;87.09;99218.72;4892105;28;102235;-74
2022/11/03 01:12:16;;;;;;;;;48.25;39.50;;;;;5.61;87.56;99219.88;4914348;28;102094;-73
2022/11/03 01:14:49;;;;;;;;;38.00;30.50;;;;;5.52;86.73;99197.50;4914032;28;108830;-71
2022/11/03 01:17:27;;;;;;;;;31.75;26.00;;;;;5.67;86.88;99217.41;4921167;28;102355;-73
2022/11/03 01:19:54;;;;;;;;;20.50;17.75;;;;;5.69;86.11;99212.75;4922150;28;102251;-73
2022/11/03 01:22:23;;;;;;;;;10.75;10.00;;;;;5.73;85.70;99210.59;4920130;28;102344;-73
2022/11/03 01:28:38;;;;;;;;;21.50;15.75;;;;;5.12;86.08;99124.75;4920367;28;102611;-73
2022/11/03 01:31:08;;;;;;;;;29.75;25.50;;;;;5.51;86.31;99217.28;4919948;28;102302;-73
2022/11/03 01:33:35;;;;;;;;;24.00;20.75;;;;;5.48;86.92;99216.75;4919154;28;103090;-74
2022/11/03 01:36:02;;;;;;;;;21.75;19.75;;;;;5.51;86.95;99205.72;4920503;28;102992;-73
2022/11/03 01:38:34;;;;;;;;;20.00;18.75;;;;;5.49;86.42;99205.03;4920840;28;102124;-73
2022/11/03 01:41:03;;;;;;;;;23.75;19.00;;;;;5.47;85.94;99207.00;4917461;28;102584;-73
2022/11/03 01:43:33;;;;;;;;;25.75;24.50;;;;;5.30;86.31;99217.59;4920030;28;103807;-73
2022/11/03 01:46:17;;;;;;;;;26.25;24.25;;;;;5.22;86.89;99214.00;4916309;28;103866;-73
2022/11/03 01:52:45;;;;;;;;;5.00;2.00;;;;;5.19;85.56;99214.28;4923530;28;102391;-73
2022/11/03 01:55:16;;;;;;;;;14.25;12.75;;;;;5.22;85.26;99209.44;4906863;28;102348;-73
2022/11/03 01:57:57;;;;;;;;;11.25;9.25;;;;;5.22;84.56;99205.97;4920223;28;108632;-73
2022/11/03 02:00:24;;;;;;;;;9.25;9.25;;;;;5.16;84.88;99207.41;4917342;28;102377;-74
2022/11/03 02:02:51;;;;;;;;;9.75;9.75;;;;;5.14;85.12;99204.00;4915908;28;102046;-73
2022/11/03 02:05:22;;;;;;;;;18.00;13.50;;;;;5.07;85.22;99202.09;4919379;28;102426;-72
2022/11/03 02:07:55;;;;;;;;;10.75;8.75;;;;;5.06;84.99;99209.28;4919927;28;104221;-73
2022/11/03 02:10:41;;;;;;;;;10.75;9.00;;;;;4.96;84.47;99195.09;4907443;28;102164;-73
2022/11/03 02:17:17;;;;;;;;;8.00;7.50;;;;;4.90;83.41;99195.72;4920382;28;102838;-74
2022/11/03 02:20:08;;;;;;;;;4.00;3.50;;;;;4.87;83.39;99204.06;4921132;28;107450;-73
2022/11/03 02:23:30;;;;;;;;;5.75;4.50;;;;;4.52;83.71;99147.72;4917721;28;102338;-73
2022/11/03 02:26:21;;;;;;;;;5.25;3.00;;;;;4.77;84.54;99200.59;4880682;28;102200;-73
2022/11/03 02:29:11;;;;;;;;;6.75;6.00;;;;;4.77;84.65;99206.78;4923217;28;102488;-73
2022/11/03 02:32:03;;;;;;;;;7.00;4.25;;;;;4.76;84.39;99210.47;4912201;28;108617;-72
2022/11/03 02:34:59;;;;;;;;;6.00;5.75;;;;;4.74;83.99;99203.56;4914485;28;102217;-73
2022/11/03 02:37:31;;;;;;;;;12.50;11.00;;;;;4.71;83.57;99211.91;4915325;28;103217;-73
2022/11/03 02:40:07;;;;;;;;;9.25;7.25;;;;;4.68;83.92;99212.22;4926090;28;102459;-73
2022/11/03 02:42:36;;;;;;;;;8.00;8.00;;;;;4.63;83.44;99211.81;4924716;28;104016;-73
2022/11/03 02:45:08;;;;;;;;;4.25;3.00;;;;;4.60;83.78;99215.63;4918303;28;102456;-73
2022/11/03 02:47:42;;;;;;;;;7.25;7.00;;;;;4.57;83.68;99218.59;4914991;28;102077;-73
2022/11/03 02:50:09;;;;;;;;;2.25;1.75;;;;;4.54;83.52;99212.72;4931428;28;102084;-73
2022/11/03 02:52:41;;;;;;;;;2.00;2.00;;;;;4.49;83.86;99219.34;4921320;28;104089;-74
2022/11/03 02:55:32;;;;;;;;;5.00;3.25;;;;;4.50;84.42;99221.00;4920401;28;102134;-73
2022/11/03 02:58:06;;;;;;;;;2.00;1.00;;;;;4.52;84.89;99212.00;4905677;28;104385;-73
2022/11/03 03:00:51;;;;;;;;;3.50;1.75;;;;;4.38;86.29;99194.59;4913160;28;103733;-73
2022/11/03 03:03:28;;;;;;;;;3.75;2.25;;;;;4.54;86.57;99215.38;4920321;28;108833;-74
2022/11/03 03:06:04;;;;;;;;;3.25;3.25;;;;;4.58;86.09;99214.94;4929370;28;104819;-73
2022/11/03 03:08:33;;;;;;;;;3.25;2.25;;;;;4.61;85.91;99208.44;4921962;28;103390;-74
2022/11/03 03:11:03;;;;;;;;;3.50;3.00;;;;;4.62;86.20;99205.63;4917306;28;102102;-73
2022/11/03 03:13:31;;;;;;;;;6.25;4.75;;;;;4.64;86.04;99206.28;4902227;28;103805;-73
2022/11/03 03:16:15;;;;;;;;;2.75;2.25;;;;;4.66;86.04;99206.16;4918011;28;102331;-74
2022/11/03 03:18:48;;;;;;;;;5.00;3.75;;;;;4.68;85.86;99209.53;4916217;28;102494;-74
2022/11/03 03:21:27;;;;;;;;;2.75;2.50;;;;;4.70;85.56;99210.22;4928948;28;102031;-73
2022/11/03 03:24:19;;;;;;;;;3.75;2.75;;;;;4.70;85.12;99216.41;4919682;28;104459;-73
2022/11/03 03:26:48;;;;;;;;;2.25;2.00;;;;;4.68;85.14;99215.75;4918093;28;102140;-73
2022/11/03 03:29:27;;;;;;;;;1.00;1.00;;;;;4.70;85.10;99215.56;4919433;28;102675;-73
2022/11/03 03:31:58;;;;;;;;;5.00;2.75;;;;;4.65;85.94;99213.34;4925518;28;103233;-73
2022/11/03 03:34:27;;;;;;;;;3.50;3.00;;;;;4.63;86.50;99215.34;4914302;28;104180;-74
2022/11/03 03:37:02;;;;;;;;;3.25;3.25;;;;;4.63;86.04;99225.22;4918482;28;102390;-74
2022/11/03 03:39:35;;;;;;;;;4.25;2.50;;;;;4.62;85.99;99220.84;4924084;28;104334;-74
2022/11/03 03:42:04;;;;;;;;;2.00;2.00;;;;;4.63;85.99;99217.19;4918462;28;103772;-73
2022/11/03 03:44:32;;;;;;;;;4.50;3.50;;;;;4.62;86.44;99218.16;4919774;28;104193;-73
2022/11/03 03:47:06;;;;;;;;;7.00;5.50;;;;;4.60;86.76;99218.28;4913490;28;102313;-73
2022/11/03 03:49:33;;;;;;;;;6.00;4.50;;;;;4.60;86.98;99214.78;4903387;28;102251;-74
2022/11/03 03:52:02;;;;;;;;;7.50;6.75;;;;;4.60;86.93;99217.44;4925347;28;102283;-73
2022/11/03 03:54:29;;;;;;;;;8.50;7.50;;;;;4.23;86.56;99154.09;4921105;28;103996;-73
2022/11/03 03:57:02;;;;;;;;;10.75;9.25;;;;;4.60;85.77;99217.44;4914839;28;102082;-73
2022/11/03 03:59:29;;;;;;;;;7.50;6.75;;;;;4.55;86.38;99223.25;4928081;28;102185;-73
2022/11/03 04:01:57;;;;;;;;;8.50;6.50;;;;;4.55;86.43;99223.25;4921148;28;102770;-73
2022/11/03 04:04:24;;;;;;;;;9.75;8.75;;;;;4.49;86.97;99216.69;4915341;28;104329;-73
2022/11/03 04:07:45;;;;;;;;;13.25;12.50;;;;;4.52;86.82;99212.84;4918959;28;101974;-73
2022/11/03 04:09:38;;;;;;;;;11.00;10.50;;;;;4.53;86.87;99219.88;4919134;28;102591;-73
2022/11/03 04:23:17;;;;;;;;;7.25;6.25;;;;;4.44;84.56;99215.41;4917981;28;102501;-73
2022/11/03 04:25:51;;;;;;;;;8.00;7.00;;;;;4.39;84.47;99213.19;4919751;28;104040;-71
2022/11/03 04:28:18;;;;;;;;;7.50;6.75;;;;;4.34;84.61;99215.47;4912090;28;102241;-73
2022/11/03 04:30:45;;;;;;;;;7.25;6.75;;;;;4.32;84.22;99212.06;4921282;28;102112;-73
2022/11/03 04:33:18;;;;;;;;;11.00;11.00;;;;;4.31;85.08;99212.22;4919904;28;102129;-73
2022/11/03 04:35:46;;;;;;;;;10.00;10.00;;;;;4.30;85.78;99206.03;4915347;28;108747;-73
2022/11/03 04:38:13;;;;;;;;;10.00;8.00;;;;;4.28;85.47;99205.31;4924834;28;102606;-76
2022/11/03 04:40:45;;;;;;;;;7.50;5.50;;;;;4.24;85.60;99203.94;4921977;28;101941;-73
2022/11/03 04:43:20;;;;;;;;;22.25;18.75;;;;;4.13;86.19;99195.25;4919563;28;102262;-73
2022/11/03 04:45:48;;;;;;;;;14.25;12.00;;;;;4.13;86.74;99198.78;4921038;28;104183;-73
2022/11/03 04:48:18;;;;;;;;;13.25;11.25;;;;;4.12;85.47;99189.06;4920452;28;102307;-73
2022/11/03 04:50:48;;;;;;;;;10.00;9.25;;;;;4.12;85.42;99191.72;4925638;28;102102;-74
2022/11/03 04:53:19;;;;;;;;;10.00;8.25;;;;;4.11;85.63;99192.72;4926009;28;102642;-72
2022/11/03 04:55:50;;;;;;;;;6.00;5.00;;;;;4.10;85.20;99191.00;4916342;28;108806;-73
2022/11/03 04:58:22;;;;;;;;;6.75;6.50;;;;;4.08;85.01;99198.38;4923734;28;102491;-73
2022/11/03 05:00:56;;;;;;;;;6.00;6.00;;;;;4.08;85.74;99184.97;4928141;28;102095;-75
2022/11/03 05:03:34;;;;;;;;;2.00;2.00;;;;;4.05;85.93;99187.97;4918661;28;102298;-73
2022/11/03 05:06:28;;;;;;;;;35.25;31.75;;;;;3.42;87.79;99128.81;4914648;28;103713;-74
2022/11/03 05:09:00;;;;;;;;;38.00;31.00;;;;;3.66;89.28;99183.66;4910578;28;103112;-74
2022/11/03 05:11:27;;;;;;;;;29.00;26.33;;;;;3.63;88.71;99181.28;4912324;28;101866;-75
2022/11/03 05:13:59;;;;;;;;;19.25;15.75;;;;;3.66;88.48;99186.34;4923808;28;102582;-73
2022/11/03 05:16:27;;;;;;;;;40.00;34.00;;;;;3.41;88.42;99177.94;4918733;28;103627;-74
2022/11/03 05:18:55;;;;;;;;;43.33;37.00;;;;;3.35;88.62;99177.66;4919327;28;102820;-74
2022/11/03 05:21:25;;;;;;;;;38.67;33.00;;;;;3.31;89.04;99169.06;4922432;28;102114;-74
2022/11/03 05:23:57;;;;;;;;;34.75;27.50;;;;;3.39;89.05;99174.56;4915240;28;102392;-74
2022/11/03 05:26:29;;;;;;;;;15.25;12.25;;;;;3.40;88.53;99170.91;4924636;28;104416;-74
2022/11/03 05:29:39;;;;;;;;;19.00;16.75;;;;;3.42;88.31;99174.25;4916498;28;102465;-73
2022/11/03 05:32:15;;;;;;;;;34.33;31.33;;;;;3.39;88.33;99177.22;4809545;29;102191;-74
2022/11/03 05:34:45;;;;;;;;;26.50;21.00;;;;;3.46;88.51;99174.84;4813906;29;102261;-74
2022/11/03 05:37:31;;;;;;;;;15.00;10.50;;;;;3.45;87.56;99171.31;4868896;28;108905;-74
2022/11/03 05:40:13;;;;;;;;;11.75;10.75;;;;;3.45;87.30;99178.50;4920116;28;102391;-74
2022/11/03 05:42:44;;;;;;;;;16.00;13.00;;;;;3.45;87.65;99176.66;4914652;28;102262;-74
2022/11/03 05:45:34;;;;;;;;;30.50;25.50;;;;;3.43;88.13;99181.31;4919675;28;102313;-74
2022/11/03 05:48:05;;;;;;;;;26.67;20.67;;;;;3.40;88.23;99170.91;4911865;28;108491;-74
2022/11/03 05:50:34;;;;;;;;;62.00;48.00;;;;;3.28;88.64;99181.88;4923305;28;102256;-74
2022/11/03 05:53:04;;;;;;;;;65.67;51.33;;;;;3.23;89.64;99179.63;4915599;28;102160;-74
2022/11/03 05:55:34;;;;;;;;;75.00;54.33;;;;;3.13;89.56;99178.78;4919173;28;102498;-74
2022/11/03 05:58:20;;;;;;;;;70.33;48.67;;;;;3.17;89.17;99180.19;4919311;28;104033;-74
2022/11/03 06:00:47;;;;;;;;;40.00;33.00;;;;;3.26;89.10;99184.69;4909754;28;102264;-74
2022/11/03 06:03:28;;;;;;;;;24.50;20.00;;;;;3.36;88.73;99180.19;4919375;28;102555;-71
2022/11/03 06:05:57;;;;;;;;;19.50;15.00;;;;;3.43;87.06;99185.78;4915475;28;102465;-75
2022/11/03 06:08:34;;;;;;;;;11.50;10.75;;;;;3.45;87.44;99174.00;4918053;28;103957;-73
2022/11/03 06:11:15;;;;;;;;;16.75;16.00;;;;;3.48;87.35;99189.75;4903657;28;102476;-73
2022/11/03 06:13:42;;;;;;;;;20.25;15.75;;;;;3.51;86.95;99189.44;4919007;28;102171;-74
2022/11/03 06:16:15;;;;;;;;;28.00;22.50;;;;;3.44;86.68;99190.16;4919876;28;104273;-75
2022/11/03 06:18:42;;;;;;;;;28.00;21.25;;;;;3.41;86.27;99193.97;4911410;28;109328;-75
2022/11/03 06:21:18;;;;;;;;;17.75;16.25;;;;;3.42;85.00;99197.50;4917989;28;102389;-75
2022/11/03 06:23:45;;;;;;;;;16.00;15.00;;;;;3.41;84.19;99203.81;4915150;28;102054;-72
2022/11/03 06:26:18;;;;;;;;;17.50;11.00;;;;;3.40;84.32;99194.97;4917940;28;101832;-73
2022/11/03 06:28:47;;;;;;;;;11.50;10.50;;;;;3.37;84.39;99191.72;4918453;28;108720;-73
2022/11/03 06:31:37;;;;;;;;;14.50;10.00;;;;;3.41;84.51;99193.97;4916485;28;102347;-74
2022/11/03 06:34:16;;;;;;;;;15.00;12.00;;;;;3.45;84.90;99200.72;4914823;28;102828;-75
2022/11/03 06:36:43;;;;;;;;;17.00;11.00;;;;;3.55;84.52;99192.72;4909767;28;102650;-73
2022/11/03 06:39:22;;;;;;;;;8.25;8.25;;;;;3.57;84.44;99194.22;4918529;28;108958;-74
2022/11/03 06:41:50;;;;;;;;;11.75;9.50;;;;;3.56;85.50;99194.38;4913658;28;102306;-73
2022/11/03 06:44:24;;;;;;;;;14.75;13.00;;;;;3.58;85.38;99195.09;4911865;28;104161;-73
2022/11/03 06:46:58;;;;;;;;;23.75;16.50;;;;;3.53;85.12;99187.50;4927013;28;102567;-73
2022/11/03 06:49:33;;;;;;;;;14.00;11.00;;;;;3.63;84.89;99189.31;4912019;28;103940;-73
2022/11/03 06:52:24;;;;;;;;;7.50;7.50;;;;;3.72;85.75;99185.78;4926035;28;102195;-74
2022/11/03 06:55:12;;;;;;;;;10.75;10.00;;;;;3.78;85.78;99186.03;4919847;28;102113;-73
2022/11/03 06:57:46;;;;;;;;;15.75;14.00;;;;;3.84;86.06;99184.63;4930474;28;102667;-75
2022/11/03 07:00:16;;;;;;;;;10.75;9.50;;;;;3.92;85.66;99187.41;4922249;28;108518;-74
2022/11/03 07:03:05;;;;;;;;;22.75;15.50;;;;;3.95;86.03;99177.28;4913294;28;102112;-74
2022/11/03 07:05:33;;;;;;;;;25.25;22.50;;;;;4.00;85.84;99180.38;4918752;28;102416;-75
2022/11/03 07:08:26;;;;;;;;;31.50;24.75;;;;;4.10;86.27;99179.50;4917426;28;102055;-74
2022/11/03 07:11:03;;;;;;;;;26.50;23.00;;;;;4.17;86.49;99172.56;4912180;28;108818;-73
2022/11/03 07:13:33;;;;;;;;;29.50;26.50;;;;;4.22;86.54;99173.81;4917280;28;102407;-73
2022/11/03 07:16:01;;;;;;;;;25.75;24.00;;;;;4.32;86.75;99174.59;4918563;28;102137;-73
2022/11/03 07:18:34;;;;;;;;;25.25;18.75;;;;;4.09;86.52;99117.09;4925617;28;103053;-74
2022/11/03 07:21:12;;;;;;;;;17.00;16.25;;;;;4.58;86.67;99163.22;4923688;28;103479;-73
2022/11/03 07:23:39;;;;;;;;;13.00;13.00;;;;;4.74;86.27;99168.75;4918189;28;102393;-73
2022/11/03 07:26:12;;;;;;;;;15.25;13.00;;;;;4.87;86.40;99163.84;4924196;28;102299;-73
2022/11/03 07:28:39;;;;;;;;;13.00;11.75;;;;;4.97;86.30;99164.66;4933401;28;103514;-74
2022/11/03 07:31:15;;;;;;;;;17.75;13.50;;;;;5.05;85.80;99161.19;4920617;28;104009;-75
2022/11/03 07:33:42;;;;;;;;;23.75;20.50;;;;;5.15;85.58;99165.50;4923094;28;102349;-75
2022/11/03 07:36:17;;;;;;;;;29.50;27.50;;;;;5.23;85.64;99154.00;4914610;28;102200;-75
2022/11/03 07:38:47;;;;;;;;;31.75;23.25;;;;;5.32;86.30;99151.25;4918378;28;101993;-75
2022/11/03 07:41:23;;;;;;;;;32.75;32.00;;;;;5.27;85.68;99126.72;4932501;28;108852;-74
2022/11/03 07:43:58;;;;;;;;;29.00;26.50;;;;;5.53;85.09;99139.34;4922083;28;102172;-74
2022/11/03 07:46:26;;;;;;;;;31.75;28.50;;;;;5.64;84.76;99136.41;4916636;28;101724;-74
2022/11/03 07:48:58;;;;;;;;;28.75;25.25;;;;;5.76;85.13;99138.66;4924750;28;102406;-74
2022/11/03 07:51:28;;;;;;;;;32.25;29.25;;;;;5.90;84.44;99125.72;4914652;28;104023;-74
2022/11/03 07:54:09;;;;;;;;;32.50;26.25;;;;;6.05;85.42;99122.28;4917781;28;102396;-75
2022/11/03 07:56:44;;;;;;;;;46.25;35.25;;;;;6.24;85.47;99122.06;4923131;28;102240;-75
2022/11/03 07:59:19;;;;;;;;;39.25;33.25;;;;;6.41;85.12;99114.91;4920971;28;102072;-75
2022/11/03 08:01:52;;;;;;;;;35.25;26.25;;;;;6.64;84.74;99105.25;4918862;28;108871;-74
2022/11/03 08:04:38;;;;;;;;;51.50;40.50;;;;;6.81;83.90;99114.19;4926712;28;102314;-74
2022/11/03 08:07:05;;;;;;;;;66.33;52.33;;;;;6.98;84.15;99107.00;4925167;28;102155;-75
2022/11/03 08:09:32;;;;;;;;;59.67;45.67;;;;;7.17;84.03;99104.81;4933184;28;102321;-74
2022/11/03 08:11:59;;;;;;;;;44.00;39.00;;;;;7.37;83.75;99102.66;4924037;28;104076;-74
2022/11/03 08:14:26;;;;;;;;;55.67;43.00;;;;;7.52;82.80;99105.50;4925512;28;102219;-74
2022/11/03 08:16:53;;;;;;;;;53.50;39.50;;;;;7.75;83.09;99100.25;4915636;28;102228;-74
2022/11/03 08:19:20;;;;;;;;;30.25;26.00;;;;;7.97;83.77;99088.78;4918106;28;102124;-73
2022/11/03 08:21:47;;;;;;;;;26.50;21.50;;;;;8.25;84.47;99086.47;4896005;28;104067;-73
2022/11/03 08:24:14;;;;;;;;;27.00;21.00;;;;;8.53;82.27;99095.81;4928779;28;102226;-74
2022/11/03 08:26:41;;;;;;;;;20.25;16.50;;;;;8.78;82.00;99089.25;4927711;28;102048;-75
2022/11/03 08:29:09;;;;;;;;;24.50;20.25;;;;;9.02;79.66;99093.66;4923153;28;102012;-73
2022/11/03 08:31:35;;;;;;;;;16.25;15.50;;;;;9.25;80.03;99085.56;4924255;28;103738;-73
2022/11/03 08:34:02;;;;;;;;;19.75;17.50;;;;;9.47;78.56;99078.47;4924235;28;102148;-73
2022/11/03 08:36:29;;;;;;;;;28.00;21.00;;;;;9.58;77.26;99075.34;4926237;28;102344;-73
2022/11/03 08:38:56;;;;;;;;;50.75;41.25;;;;;9.52;77.35;99060.72;4925922;28;102593;-73
2022/11/03 08:41:23;;;;;;;;;57.50;43.25;;;;;9.54;77.60;99058.69;4926629;28;104009;-72
2022/11/03 08:43:50;;;;;;;;;65.00;51.00;;;;;9.58;77.42;99054.59;4923650;28;102159;-72
2022/11/03 08:46:17;;;;;;;;;57.75;45.50;;;;;9.71;76.73;99051.25;4929050;28;102070;-73
2022/11/03 08:48:45;;;;;;;;;79.00;54.67;;;;;9.56;76.54;99026.94;4924783;28;102627;-73
2022/11/03 08:51:13;;;;;;;;;61.00;44.50;;;;;9.86;77.12;99050.22;4927524;28;108555;-74
2022/11/03 08:53:41;;;;;;;;;60.50;46.25;;;;;10.08;75.77;99055.75;4921272;28;101953;-73
2022/11/03 08:56:09;;;;;;;;;54.00;42.00;;;;;10.26;75.87;99048.13;4927656;28;102118;-73
2022/11/03 08:58:43;;;;;;;;;54.00;43.25;;;;;10.16;74.34;98997.06;4891667;28;102233;-74
2022/11/03 09:01:11;;;;;;;;;38.25;35.25;;;;;10.60;74.02;99037.53;4890099;28;108686;-73
2022/11/03 09:03:38;;;;;;;;;52.75;42.00;;;;;10.65;72.81;99031.53;4883566;28;101972;-74
2022/11/03 09:06:06;;;;;;;;;56.00;43.00;;;;;10.60;73.30;99018.59;4888563;28;101889;-73
2022/11/03 09:08:33;;;;;;;;;39.25;36.25;;;;;10.85;74.15;99027.16;4880273;28;102306;-73
2022/11/03 09:11:20;;;;;;;;;29.50;24.75;;;;;11.14;73.95;99037.03;4883919;28;107869;-72
2022/11/03 09:13:47;;;;;;;;;22.00;19.75;;;;;11.39;70.80;99027.47;4884866;28;102001;-72
2022/11/03 09:16:14;;;;;;;;;18.00;14.75;;;;;11.58;69.13;99034.91;4885722;28;102314;-74
2022/11/03 09:18:41;;;;;;;;;8.75;8.25;;;;;11.81;70.64;99025.72;4890602;28;102004;-73
2022/11/03 09:21:08;;;;;;;;;8.75;8.50;;;;;11.97;69.76;99025.44;4887107;28;104046;-73
2022/11/03 09:23:35;;;;;;;;;5.75;5.75;;;;;12.20;68.64;99025.97;4890485;28;102075;-73
2022/11/03 09:26:04;;;;;;;;;6.75;6.00;;;;;12.37;66.01;99021.88;4891815;28;102368;-73
2022/11/03 09:28:31;;;;;;;;;7.25;6.25;;;;;12.52;66.66;99014.41;4878265;28;102274;-74
2022/11/03 09:30:58;;;;;;;;;6.50;6.00;;;;;12.66;63.14;99018.00;4886723;28;102924;-75
2022/11/03 09:33:26;;;;;;;;;8.50;7.75;;;;;12.66;63.84;99017.16;4878122;28;102097;-75
2022/11/03 09:35:53;;;;;;;;;7.00;5.25;;;;;12.74;63.28;99015.09;4889735;28;103161;-73
2022/11/03 09:38:19;;;;;;;;;18.75;15.00;;;;;12.60;62.17;99001.72;4878976;28;102317;-73
2022/11/03 09:40:47;;;;;;;;;8.00;8.00;;;;;12.77;62.52;99000.31;4881680;28;103992;-72
2022/11/03 09:43:19;;;;;;;;;8.00;5.75;;;;;13.01;62.54;99001.59;4883349;28;102059;-72
2022/11/03 09:45:46;;;;;;;;;4.00;4.00;;;;;13.07;62.40;98996.16;4887346;28;102271;-72
2022/11/03 09:48:14;;;;;;;;;13.00;11.00;;;;;12.85;60.91;99000.94;4886183;28;102313;-73
2022/11/03 09:50:41;;;;;;;;;7.00;6.00;;;;;13.04;60.20;98996.59;4887309;28;108727;-72
2022/11/03 09:53:11;;;;;;;;;2.00;2.00;;;;;13.21;57.76;99002.47;4885630;28;102155;-72
2022/11/03 09:55:38;;;;;;;;;3.00;3.00;;;;;13.28;57.70;98985.13;4890216;28;102545;-73
2022/11/03 09:58:14;;;;;;;;;4.75;3.50;;;;;13.35;57.62;98982.44;4910678;28;102196;-72
2022/11/03 10:00:42;;;;;;;;;1.25;1.25;;;;;13.44;57.47;98967.59;4923242;28;108571;-72
2022/11/03 10:03:12;;;;;;;;;6.75;5.75;;;;;13.27;57.24;98956.34;4924340;28;102259;-72
2022/11/03 10:05:41;;;;;;;;;5.75;3.50;;;;;13.48;56.36;98971.56;4916672;28;102092;-72
2022/11/03 10:08:31;;;;;;;;;2.00;2.00;;;;;13.66;54.22;98962.75;4925850;28;102224;-74
2022/11/03 10:11:01;;;;;;;;;4.00;3.00;;;;;13.78;54.26;98952.88;4913689;28;107428;-74
2022/11/03 10:13:38;;;;;;;;;4.50;3.50;;;;;13.74;55.69;98947.06;4925493;28;102406;-75
2022/11/03 10:16:11;;;;;;;;;3.00;2.75;;;;;13.76;52.65;98950.41;4917097;28;101850;-74
2022/11/03 10:18:38;;;;;;;;;1.50;1.50;;;;;13.83;51.94;98944.94;4913828;28;102566;-74
2022/11/03 10:21:13;;;;;;;;;3.00;2.00;;;;;13.94;53.15;98938.00;4921927;28;105044;-74
2022/11/03 10:23:40;;;;;;;;;1.75;1.50;;;;;13.99;53.75;98941.78;4916893;28;102218;-74
2022/11/03 10:26:09;;;;;;;;;2.25;2.25;;;;;14.09;52.00;98934.00;4913403;28;102253;-74
2022/11/03 10:28:37;;;;;;;;;1.00;1.00;;;;;14.02;51.23;98914.13;4926469;28;102199;-74
2022/11/03 10:31:07;;;;;;;;;2.50;2.00;;;;;14.16;51.45;98928.50;4919958;28;104264;-74
2022/11/03 10:33:59;;;;;;;;;2.00;1.50;;;;;14.25;51.42;98922.63;4918380;28;102086;-74
2022/11/03 10:36:28;;;;;;;;;3.25;1.50;;;;;14.32;52.11;98911.69;4908247;28;101798;-73
2022/11/03 10:38:56;;;;;;;;;1.25;1.00;;;;;14.37;50.51;98908.34;4926979;28;102400;-72
2022/11/03 10:41:33;;;;;;;;;0.75;0.50;;;;;14.48;51.56;98915.81;4923895;28;103995;-72
2022/11/03 10:44:15;;;;;;;;;5.00;5.00;;;;;14.36;51.51;98914.88;4926486;28;102168;-73
2022/11/03 10:46:59;;;;;;;;;5.25;4.00;;;;;14.37;51.13;98905.63;4918194;28;102116;-73
2022/11/03 10:49:31;;;;;;;;;1.50;1.50;;;;;14.49;49.93;98899.28;4920375;28;102237;-73
2022/11/03 10:52:18;;;;;;;;;3.75;3.00;;;;;14.51;50.14;98893.63;4920612;28;104580;-73
2022/11/03 10:54:46;;;;;;;;;5.25;4.50;;;;;14.41;50.91;98899.53;4925858;28;103319;-73
2022/11/03 10:57:15;;;;;;;;;9.00;7.25;;;;;14.10;50.54;98889.41;4905779;28;101978;-73
2022/11/03 10:59:44;;;;;;;;;7.00;6.25;;;;;14.32;52.11;98889.91;4925014;28;102102;-74
2022/11/03 11:02:19;;;;;;;;;6.50;6.50;;;;;14.40;50.33;98883.44;4919439;28;108625;-73
2022/11/03 11:04:57;;;;;;;;;7.75;7.00;;;;;14.18;50.29;98872.03;4928026;28;102409;-72
2022/11/03 11:07:31;;;;;;;;;3.00;3.00;;;;;14.36;50.34;98865.91;4919533;28;102218;-73
2022/11/03 11:10:16;;;;;;;;;3.25;3.25;;;;;14.62;50.99;98865.72;4922767;28;102281;-73
2022/11/03 11:13:16;;;;;;;;;8.25;7.50;;;;;14.45;49.79;98856.41;4932400;28;108695;-73
2022/11/03 11:15:59;;;;;;;;;5.75;5.00;;;;;14.60;51.03;98857.75;4921606;28;102094;-73
2022/11/03 11:18:29;;;;;;;;;3.25;3.00;;;;;14.72;50.90;98841.56;4915010;28;102203;-73
2022/11/03 11:20:57;;;;;;;;;3.00;3.00;;;;;14.79;50.42;98838.78;4906679;28;102404;-74
2022/11/03 11:23:27;;;;;;;;;2.75;2.00;;;;;14.64;49.98;98834.50;4919047;28;104152;-74
2022/11/03 11:26:09;;;;;;;;;4.25;4.00;;;;;14.70;50.58;98822.72;4920382;28;102373;-73
2022/11/03 11:28:42;;;;;;;;;3.00;3.00;;;;;14.39;48.97;98752.03;4922420;28;102130;-73
2022/11/03 11:31:29;;;;;;;;;3.00;2.00;;;;;14.92;47.54;98820.44;4927644;28;102455;-73
2022/11/03 11:34:08;;;;;;;;;4.75;4.25;;;;;14.78;48.06;98805.28;4916376;28;108566;-73
2022/11/03 11:36:37;;;;;;;;;6.50;5.25;;;;;14.70;47.83;98795.50;4915064;28;105059;-73
2022/11/03 11:39:10;;;;;;;;;7.00;6.00;;;;;14.65;47.47;98798.06;4921368;28;102324;-73
2022/11/03 11:42:05;;;;;;;;;3.00;3.00;;;;;14.72;47.24;98792.56;4925215;28;102308;-73
2022/11/03 11:44:39;;;;;;;;;2.00;2.00;;;;;14.68;46.08;98794.03;4929552;28;108639;-73
2022/11/03 11:47:26;;;;;;;;;3.25;3.25;;;;;14.58;48.05;98782.84;4908083;28;102490;-73
2022/11/03 11:50:11;;;;;;;;;6.00;5.00;;;;;14.54;47.38;98792.50;4921665;28;102055;-74
2022/11/03 11:52:44;;;;;;;;;5.00;3.75;;;;;14.57;48.38;98789.34;4918144;28;102081;-73
2022/11/03 11:55:23;;;;;;;;;5.25;4.25;;;;;14.54;47.60;98782.47;4914697;28;108962;-73
2022/11/03 11:57:52;;;;;;;;;4.75;4.00;;;;;14.53;49.60;98783.50;4918529;28;102351;-73
2022/11/03 12:00:24;;;;;;;;;6.00;4.75;;;;;14.52;46.23;98776.41;4924446;28;101999;-73
2022/11/03 12:02:52;;;;;;;;;3.25;3.25;;;;;14.43;44.37;98766.00;4921458;28;102002;-74
2022/11/03 12:05:24;;;;;;;;;3.00;2.00;;;;;14.63;44.94;98766.69;4917816;28;103982;-73
2022/11/03 12:07:51;;;;;;;;;3.00;3.00;;;;;14.56;45.07;98766.72;4914676;28;102382;-72
2022/11/03 12:10:22;;;;;;;;;2.75;2.00;;;;;14.68;43.15;98761.38;4918181;28;101794;-71
2022/11/03 12:12:49;;;;;;;;;1.00;1.00;;;;;14.85;44.05;98758.94;4926608;28;102395;-72
2022/11/03 12:15:53;;;;;;;;;1.00;1.00;;;;;14.89;42.61;98758.28;4930732;28;103973;-73
2022/11/03 12:18:33;;;;;;;;;1.00;1.00;;;;;14.82;43.18;98748.47;4917082;28;102348;-72
2022/11/03 12:21:14;;;;;;;;;1.00;1.00;;;;;14.83;42.81;98742.81;4923729;28;102263;-73
2022/11/03 12:23:43;;;;;;;;;1.00;0.00;;;;;14.79;43.00;98738.88;4926613;28;102248;-73